Time;durP1;ratioP1;P1;durP2;ratioP2;P2;SDS_P1;SDS_P2;PMS_P1;PMS_P2;Temp;Humidity;BMP_temperature;BMP_pressure;BME280_temperature;BME280_humidity;BME280_pressure;Samples;Min_cycle;Max_cycle;Signal;HPM_P1;HPM_P2
2023/11/28 00:00:11;;;;;;;;;;;;;;;6.63;67.54;100686.19;7356151;19;19911;-62
2023/11/28 00:02:37;;;;;;;;;;;;;;;6.59;67.36;100684.47;7362043;19;19955;-62
2023/11/28 00:05:03;;;;;;;;;;;;;;;6.56;67.29;100685.38;7360799;19;19956;-61
2023/11/28 00:07:30;;;;;;;;;;;;;;;6.53;67.50;100682.78;7360338;19;19940;-61
2023/11/28 00:09:56;;;;;;;;;;;;;;;6.52;67.31;100680.22;7357681;19;19915;-62
2023/11/28 00:12:22;;;;;;;;;;;;;;;6.50;67.62;100680.25;7354868;19;20042;-62
2023/11/28 00:14:49;;;;;;;;;;;;;;;6.48;67.54;100681.97;7353887;19;19923;-62
2023/11/28 00:17:14;;;;;;;;;;;;;;;6.47;67.97;100675.91;7355807;19;20797;-62
2023/11/28 00:19:39;;;;;;;;;;;;;;;6.47;67.73;100686.28;7354692;19;19957;-62
2023/11/28 00:22:05;;;;;;;;;;;;;;;6.46;67.51;100675.94;7359538;19;21096;-62
2023/11/28 01:26:14;;;;;;;;;;;;;;;6.43;68.23;100707.94;7367151;19;19918;-61
2023/11/28 01:28:39;;;;;;;;;;;;;;;6.46;68.47;100717.44;7369087;19;19922;-61
2023/11/28 01:31:05;;;;;;;;;;;;;;;6.47;68.68;100714.81;7371399;19;20285;-62
2023/11/28 01:33:30;;;;;;;;;;;;;;;6.50;68.47;100720.00;7368593;19;19933;-62
2023/11/28 01:35:55;;;;;;;;;;;;;;;6.46;68.76;100713.09;7367917;19;19915;-62
2023/11/28 01:38:21;;;;;;;;;;;;;;;6.55;68.71;100709.59;7369728;19;19918;-62
2023/11/28 01:40:50;;;;;;;;;;;;;;;6.57;68.46;100707.00;7366876;19;19915;-62
2023/11/28 01:43:28;;;;;;;;;;;;;;;6.59;68.47;100723.41;7368105;19;19927;-62
2023/11/28 01:45:54;;;;;;;;;;;;;;;6.60;68.33;100714.78;7375409;19;19922;-61
2023/11/28 01:48:19;;;;;;;;;;;;;;;6.61;68.45;100709.56;7366275;19;20223;-62
2023/11/28 01:50:47;;;;;;;;;;;;;;;6.63;68.79;100700.03;7370690;19;19926;-61
2023/11/28 01:53:13;;;;;;;;;;;;;;;6.65;68.68;100700.03;7368723;19;20017;-62
2023/11/28 01:55:38;;;;;;;;;;;;;;;6.66;68.37;100701.75;7366064;19;19986;-62
2023/11/28 01:58:04;;;;;;;;;;;;;;;6.68;68.50;100705.19;7365430;19;19914;-62
2023/11/28 02:00:29;;;;;;;;;;;;;;;6.68;68.63;100702.59;7367111;19;19943;-62
2023/11/28 02:02:57;;;;;;;;;;;;;;;6.67;68.35;100706.06;7365642;19;20688;-62
2023/11/28 02:05:22;;;;;;;;;;;;;;;6.66;68.14;100705.19;7367968;19;20531;-62
2023/11/28 02:07:48;;;;;;;;;;;;;;;6.65;68.13;100694.84;7361270;19;19926;-62
2023/11/28 02:10:14;;;;;;;;;;;;;;;6.62;68.60;100697.44;7369353;19;19918;-62
2023/11/28 02:12:41;;;;;;;;;;;;;;;6.61;68.33;100696.59;7371720;19;19937;-62
2023/11/28 02:15:07;;;;;;;;;;;;;;;6.58;68.11;100701.78;7361146;19;20015;-61
2023/11/28 02:17:33;;;;;;;;;;;;;;;6.57;68.42;100699.22;7368438;19;19923;-62
2023/11/28 02:19:58;;;;;;;;;;;;;;;6.53;68.40;100697.50;7364088;19;19939;-62
2023/11/28 02:22:24;;;;;;;;;;;;;;;6.49;68.25;100687.16;7362681;19;19934;-62
2023/11/28 02:24:50;;;;;;;;;;;;;;;6.47;68.23;100699.25;7364927;19;20530;-62
2023/11/28 02:27:15;;;;;;;;;;;;;;;6.45;68.09;100701.00;7367044;19;19919;-62
2023/11/28 02:29:44;;;;;;;;;;;;;;;6.43;68.46;100707.94;7369916;19;19914;-62
2023/11/28 02:32:09;;;;;;;;;;;;;;;6.42;68.58;100710.53;7365639;19;20680;-62
2023/11/28 02:34:35;;;;;;;;;;;;;;;6.41;68.59;100707.09;7363679;19;19918;-62
2023/11/28 02:37:00;;;;;;;;;;;;;;;6.41;68.51;100709.69;7365308;19;19915;-62
2023/11/28 02:39:25;;;;;;;;;;;;;;;6.40;68.29;100707.97;7355923;19;19949;-62
2023/11/28 02:41:52;;;;;;;;;;;;;;;6.39;68.69;100711.44;7366051;19;20295;-62
2023/11/28 02:44:17;;;;;;;;;;;;;;;6.40;68.27;100707.97;7363774;19;19927;-62
2023/11/28 02:46:45;;;;;;;;;;;;;;;6.39;68.58;100714.03;7357640;19;19943;-62
2023/11/28 02:49:10;;;;;;;;;;;;;;;6.38;68.48;100709.69;7363392;19;19931;-62
2023/11/28 02:51:36;;;;;;;;;;;;;;;6.39;68.76;100714.03;7367791;19;20031;-62
2023/11/28 02:54:01;;;;;;;;;;;;;;;6.39;68.62;100711.44;7364513;19;19967;-62
2023/11/28 02:56:26;;;;;;;;;;;;;;;6.40;68.42;100710.56;7361299;19;19919;-62
2023/11/28 04:25:46;;;;;;;;;;;;;;;6.38;69.35;100714.88;7378221;19;19942;-62
2023/11/28 04:28:11;;;;;;;;;;;;;;;6.41;69.09;100714.88;7364656;19;19990;-62
2023/11/28 04:30:36;;;;;;;;;;;;;;;6.44;69.27;100708.81;7371001;19;19922;-61
2023/11/28 04:33:02;;;;;;;;;;;;;;;6.47;69.26;100706.19;7366122;19;19919;-61
2023/11/28 04:35:27;;;;;;;;;;;;;;;6.48;69.14;100706.16;7372845;19;20355;-61
2023/11/28 04:37:53;;;;;;;;;;;;;;;6.50;69.11;100704.44;7364800;19;19918;-62
2023/11/28 04:40:18;;;;;;;;;;;;;;;6.53;69.17;100707.88;7364027;19;19943;-62
2023/11/28 04:42:43;;;;;;;;;;;;;;;6.56;69.08;100703.53;7356534;19;19910;-61
2023/11/28 04:45:10;;;;;;;;;;;;;;;6.59;69.34;100707.84;7368952;19;20262;-61
2023/11/28 04:47:35;;;;;;;;;;;;;;;6.61;69.29;100700.91;7363035;19;20525;-62
2023/11/28 04:50:00;;;;;;;;;;;;;;;6.63;69.41;100701.75;7366287;19;20204;-62
2023/11/28 04:52:26;;;;;;;;;;;;;;;6.65;69.15;100702.63;7364896;19;19915;-62
2023/11/28 04:54:51;;;;;;;;;;;;;;;6.68;69.18;100700.00;7366402;19;19919;-62
2023/11/28 04:57:16;;;;;;;;;;;;;;;6.69;69.00;100699.13;7364731;19;19918;-62
2023/11/28 04:59:41;;;;;;;;;;;;;;;6.71;69.32;100702.59;7372870;19;20729;-62
2023/11/28 05:02:07;;;;;;;;;;;;;;;6.72;69.60;100707.75;7370103;19;19994;-62
2023/11/28 05:04:33;;;;;;;;;;;;;;;6.74;69.17;100699.94;7365800;19;19955;-62
2023/11/28 05:06:58;;;;;;;;;;;;;;;6.76;69.58;100703.41;7363812;19;19923;-62
2023/11/28 05:09:26;;;;;;;;;;;;;;;6.77;69.32;100712.91;7365477;19;19923;-62
2023/11/28 05:11:51;;;;;;;;;;;;;;;6.77;69.01;100705.13;7366719;19;20659;-61
2023/11/28 05:14:16;;;;;;;;;;;;;;;6.79;69.32;100705.97;7358586;19;19927;-63
2023/11/28 05:16:41;;;;;;;;;;;;;;;6.81;69.54;100708.56;7360664;19;19914;-62
2023/11/28 05:19:07;;;;;;;;;;;;;;;6.82;69.64;100708.56;7359080;19;20471;-61
2023/11/28 05:21:32;;;;;;;;;;;;;;;6.85;69.48;100710.28;7360871;19;19914;-62
2023/11/28 05:23:58;;;;;;;;;;;;;;;6.85;69.15;100711.13;7362159;19;19986;-62
2023/11/28 05:26:23;;;;;;;;;;;;;;;6.86;69.20;100712.84;7363737;19;19928;-62
2023/11/28 05:28:48;;;;;;;;;;;;;;;6.88;69.17;100705.91;7365316;19;19929;-62
2023/11/28 05:31:14;;;;;;;;;;;;;;;6.91;69.63;100710.22;7365759;19;19926;-62
2023/11/28 05:33:39;;;;;;;;;;;;;;;6.91;69.31;100705.03;7366894;19;19931;-62
2023/11/28 05:36:06;;;;;;;;;;;;;;;6.92;69.12;100707.63;7364006;19;19938;-62
2023/11/28 05:38:31;;;;;;;;;;;;;;;6.92;69.14;100707.63;7373194;19;19915;-62
2023/11/28 05:40:56;;;;;;;;;;;;;;;6.92;69.15;100710.22;7364473;19;19971;-61
2023/11/28 05:43:22;;;;;;;;;;;;;;;6.92;69.12;100707.63;7362332;19;19914;-62
2023/11/28 05:45:47;;;;;;;;;;;;;;;6.92;69.45;100702.41;7358776;19;19993;-62
2023/11/28 05:48:12;;;;;;;;;;;;;;;6.93;69.52;100704.13;7364601;19;20315;-62
2023/11/28 05:50:38;;;;;;;;;;;;;;;6.92;69.28;100702.41;7364156;19;19922;-62
2023/11/28 05:53:03;;;;;;;;;;;;;;;6.92;69.42;100701.56;7364056;19;19947;-61
2023/11/28 05:55:29;;;;;;;;;;;;;;;6.90;69.03;100698.97;7359324;19;20324;-62
2023/11/28 05:57:54;;;;;;;;;;;;;;;6.90;69.07;100703.31;7366878;19;19943;-62
2023/11/28 06:00:20;;;;;;;;;;;;;;;6.88;69.02;100705.91;7361613;19;19922;-62
2023/11/28 06:02:45;;;;;;;;;;;;;;;6.87;69.11;100703.34;7365185;19;19939;-61
2023/11/28 06:05:11;;;;;;;;;;;;;;;6.86;69.06;100707.66;7359943;19;19927;-62
2023/11/28 06:07:36;;;;;;;;;;;;;;;6.86;69.21;100705.06;7364423;19;19915;-62
2023/11/28 06:10:04;;;;;;;;;;;;;;;6.84;69.41;100711.97;7360457;19;19919;-62
2023/11/28 06:12:29;;;;;;;;;;;;;;;6.82;69.17;100716.34;7374263;19;20345;-62
2023/11/28 06:14:54;;;;;;;;;;;;;;;6.81;69.34;100719.81;7362967;19;19926;-63
2023/11/28 06:17:20;;;;;;;;;;;;;;;6.79;69.41;100715.50;7377332;19;20450;-62
2023/11/28 06:19:46;;;;;;;;;;;;;;;6.77;69.30;100715.50;7378730;19;19933;-62
2023/11/28 06:22:12;;;;;;;;;;;;;;;6.75;68.99;100717.25;7374756;19;20251;-62
2023/11/28 06:24:37;;;;;;;;;;;;;;;6.73;69.10;100714.66;7370732;19;19983;-62
2023/11/28 06:27:06;;;;;;;;;;;;;;;6.72;69.32;100714.69;7366029;19;19922;-61
2023/11/28 06:29:32;;;;;;;;;;;;;;;6.69;68.95;100718.16;7367961;19;19918;-61
2023/11/28 06:31:57;;;;;;;;;;;;;;;6.68;69.07;100718.16;7373937;19;19938;-62
2023/11/28 06:34:22;;;;;;;;;;;;;;;6.66;69.09;100714.72;7376172;19;19938;-61
2023/11/28 06:36:48;;;;;;;;;;;;;;;6.64;69.18;100713.84;7359777;19;19919;-62
2023/11/28 06:39:13;;;;;;;;;;;;;;;6.63;69.07;100722.50;7367667;19;19930;-62
2023/11/28 06:41:38;;;;;;;;;;;;;;;6.60;69.25;100717.38;7371000;19;19943;-62
2023/11/28 06:44:04;;;;;;;;;;;;;;;6.59;68.99;100723.41;7366153;19;19918;-61
2023/11/28 06:46:29;;;;;;;;;;;;;;;6.57;69.23;100719.97;7368485;19;19923;-62
2023/11/28 06:48:55;;;;;;;;;;;;;;;6.56;69.28;100718.25;7370152;19;19939;-61
2023/11/28 06:51:21;;;;;;;;;;;;;;;6.53;69.29;100718.25;7369939;19;19911;-61
2023/11/28 06:53:46;;;;;;;;;;;;;;;6.52;69.21;100719.13;7368414;19;19926;-61
2023/11/28 06:56:11;;;;;;;;;;;;;;;6.50;69.18;100717.41;7372800;19;19934;-62
2023/11/28 06:58:37;;;;;;;;;;;;;;;6.49;69.35;100722.63;7365538;19;19922;-62
2023/11/28 07:01:02;;;;;;;;;;;;;;;6.47;68.96;100714.81;7368797;19;20620;-61
2023/11/28 07:03:31;;;;;;;;;;;;;;;6.47;69.36;100714.81;7366424;19;20249;-62
2023/11/28 07:05:56;;;;;;;;;;;;;;;6.47;69.04;100713.97;7369096;19;20331;-62
2023/11/28 07:08:22;;;;;;;;;;;;;;;6.45;69.06;100716.56;7374508;19;19918;-61
2023/11/28 07:10:47;;;;;;;;;;;;;;;6.44;69.00;100714.88;7375824;19;20417;-62
2023/11/28 07:13:12;;;;;;;;;;;;;;;6.44;68.98;100714.88;7365476;19;19922;-62
2023/11/28 07:15:38;;;;;;;;;;;;;;;6.44;69.22;100720.06;7361996;19;20762;-62
2023/11/28 07:18:03;;;;;;;;;;;;;;;6.42;69.38;100716.59;7368080;19;19936;-61
2023/11/28 07:20:29;;;;;;;;;;;;;;;6.42;69.47;100715.72;7364853;19;19918;-62
2023/11/28 07:22:55;;;;;;;;;;;;;;;6.41;69.07;100714.88;7369677;19;20676;-61
2023/11/28 07:25:20;;;;;;;;;;;;;;;6.40;69.05;100715.75;7364518;19;19942;-62
2023/11/28 07:27:46;;;;;;;;;;;;;;;6.40;69.05;100709.69;7360806;19;20296;-62
2023/11/28 07:30:11;;;;;;;;;;;;;;;6.40;69.22;100713.16;7369544;19;19927;-61
2023/11/28 07:32:37;;;;;;;;;;;;;;;6.39;69.39;100701.06;7364792;19;19921;-62
2023/11/28 07:35:03;;;;;;;;;;;;;;;6.39;69.07;100705.38;7365931;19;19919;-62
2023/11/28 07:37:29;;;;;;;;;;;;;;;6.39;69.42;100711.44;7367415;19;19926;-62
2023/11/28 07:39:54;;;;;;;;;;;;;;;6.38;69.53;100704.50;7369071;19;20264;-61
2023/11/28 07:42:19;;;;;;;;;;;;;;;6.39;69.19;100710.56;7365831;19;19919;-62
2023/11/28 07:44:45;;;;;;;;;;;;;;;6.37;69.40;100713.16;7367108;19;19974;-61
2023/11/28 07:47:10;;;;;;;;;;;;;;;6.37;69.40;100715.75;7364229;19;19923;-62
2023/11/28 07:49:35;;;;;;;;;;;;;;;6.36;69.11;100716.63;7368019;19;19958;-62
2023/11/28 07:52:00;;;;;;;;;;;;;;;6.34;69.23;100708.00;7356222;19;19911;-62
2023/11/28 07:54:26;;;;;;;;;;;;;;;6.35;68.95;100714.91;7366426;19;20355;-62
2023/11/28 07:56:51;;;;;;;;;;;;;;;6.35;68.95;100719.22;7364172;19;19930;-62
2023/11/28 07:59:16;;;;;;;;;;;;;;;6.35;69.03;100714.03;7358558;19;20264;-62
2023/11/28 08:01:42;;;;;;;;;;;;;;;6.33;69.07;100716.63;7350687;19;19990;-62
2023/11/28 08:04:07;;;;;;;;;;;;;;;6.33;69.46;100716.63;7363325;19;19919;-62
2023/11/28 08:06:34;;;;;;;;;;;;;;;6.31;69.07;100713.19;7366221;19;19930;-61
2023/11/28 08:08:59;;;;;;;;;;;;;;;6.31;69.12;100707.16;7366457;19;19915;-62
2023/11/28 08:11:24;;;;;;;;;;;;;;;6.30;69.45;100706.28;7362257;19;19978;-62
2023/11/28 08:13:50;;;;;;;;;;;;;;;6.30;69.32;100710.63;7364113;19;19915;-62
2023/11/28 08:16:15;;;;;;;;;;;;;;;6.31;69.27;100707.16;7360075;19;19918;-62
2023/11/28 08:18:40;;;;;;;;;;;;;;;6.29;69.29;100709.75;7364926;19;20458;-61
2023/11/28 08:43:38;;;;;;;;;;;;;;;6.23;69.15;100721.03;7378534;19;19925;-61
2023/11/28 08:46:04;;;;;;;;;;;;;;;6.26;69.44;100734.84;7364895;19;19978;-62
2023/11/28 08:48:31;;;;;;;;;;;;;;;6.25;69.27;100728.78;7363123;19;19933;-62
2023/11/28 08:50:56;;;;;;;;;;;;;;;6.24;69.53;100724.47;7355435;19;19926;-62
2023/11/28 08:53:21;;;;;;;;;;;;;;;6.23;69.25;100730.50;7357331;19;20652;-62
2023/11/28 08:55:47;;;;;;;;;;;;;;;6.22;69.22;100723.59;7361109;19;19931;-62
2023/11/28 08:58:12;;;;;;;;;;;;;;;6.22;69.32;100723.59;7368334;19;19929;-62
2023/11/28 09:00:37;;;;;;;;;;;;;;;6.22;69.30;100736.56;7356740;19;19922;-62
2023/11/28 09:03:03;;;;;;;;;;;;;;;6.22;69.51;100733.97;7356157;19;19946;-62
2023/11/28 09:05:28;;;;;;;;;;;;;;;6.22;69.76;100729.66;7355864;19;19941;-61
2023/11/28 09:07:57;;;;;;;;;;;;;;;6.22;69.56;100734.84;7357042;19;20011;-62
2023/11/28 09:10:22;;;;;;;;;;;;;;;6.22;69.31;100729.66;7355171;19;20683;-62
2023/11/28 09:12:48;;;;;;;;;;;;;;;6.22;69.48;100729.66;7360211;19;19923;-62
2023/11/28 09:15:14;;;;;;;;;;;;;;;6.23;69.54;100725.31;7357364;19;19918;-62
2023/11/28 09:17:39;;;;;;;;;;;;;;;6.24;69.65;100722.75;7358049;19;19926;-61
2023/11/28 09:20:05;;;;;;;;;;;;;;;6.25;69.72;100723.59;7351452;19;19915;-62
2023/11/28 09:22:30;;;;;;;;;;;;;;;6.26;69.77;100720.13;7351023;19;19923;-61
2023/11/28 09:24:55;;;;;;;;;;;;;;;6.29;69.92;100721.88;7361207;19;19926;-62
2023/11/28 09:27:20;;;;;;;;;;;;;;;6.29;69.38;100719.28;7357879;19;19926;-62
2023/11/28 09:29:46;;;;;;;;;;;;;;;6.30;69.49;100719.25;7363894;19;20353;-62
2023/11/28 09:32:13;;;;;;;;;;;;;;;6.30;69.63;100724.44;7355746;19;19938;-61
2023/11/28 09:34:38;;;;;;;;;;;;;;;6.31;69.60;100723.56;7355034;19;19919;-62
2023/11/28 09:37:03;;;;;;;;;;;;;;;6.34;69.58;100723.56;7356107;19;19925;-62
2023/11/28 09:39:29;;;;;;;;;;;;;;;6.35;69.82;100720.09;7354347;19;19919;-62
2023/11/28 09:41:58;;;;;;;;;;;;;;;6.31;69.81;100710.59;7360491;19;19926;-62
2023/11/28 09:44:26;;;;;;;;;;;;;;;6.39;69.60;100727.00;7358546;19;19911;-61
2023/11/28 09:46:51;;;;;;;;;;;;;;;6.41;69.78;100720.06;7358753;19;19930;-62
2023/11/28 09:49:17;;;;;;;;;;;;;;;6.42;69.68;100726.97;7367557;19;19923;-62
2023/11/28 09:51:46;;;;;;;;;;;;;;;6.44;69.90;100725.25;7371022;19;20297;-61
2023/11/28 09:54:13;;;;;;;;;;;;;;;6.46;69.38;100728.66;7365933;19;19923;-62
2023/11/28 09:56:38;;;;;;;;;;;;;;;6.46;69.85;100730.41;7370259;19;20389;-61
2023/11/28 09:59:08;;;;;;;;;;;;;;;6.47;69.81;100730.38;7369701;19;19914;-62
2023/11/28 10:01:35;;;;;;;;;;;;;;;6.49;69.88;100727.81;7367212;19;19985;-62
2023/11/28 10:04:00;;;;;;;;;;;;;;;6.51;69.61;100731.25;7365655;19;19918;-62
2023/11/28 10:06:26;;;;;;;;;;;;;;;6.52;69.73;100732.09;7365922;19;20677;-62
2023/11/28 10:08:53;;;;;;;;;;;;;;;6.53;69.86;100724.31;7357932;19;19919;-62
2023/11/28 10:11:21;;;;;;;;;;;;;;;6.55;69.58;100732.09;7364753;19;19930;-62
2023/11/28 10:13:46;;;;;;;;;;;;;;;6.56;69.75;100733.81;7362825;19;20449;-62
2023/11/28 10:16:13;;;;;;;;;;;;;;;6.59;70.01;100733.78;7353596;19;19927;-62
2023/11/28 10:18:42;;;;;;;;;;;;;;;6.60;69.97;100740.72;7372180;19;20908;-62
2023/11/28 10:21:08;;;;;;;;;;;;;;;6.45;69.97;100706.19;7368770;19;19929;-62
2023/11/28 10:23:33;;;;;;;;;;;;;;;6.64;69.62;100735.50;7365025;19;19918;-62
2023/11/28 10:25:59;;;;;;;;;;;;;;;6.66;69.91;100735.47;7363534;19;19914;-62
2023/11/28 10:28:24;;;;;;;;;;;;;;;6.68;69.83;100733.72;7366115;19;19925;-61
2023/11/28 10:30:50;;;;;;;;;;;;;;;6.69;69.63;100727.66;7367686;19;19939;-62
2023/11/28 10:33:15;;;;;;;;;;;;;;;6.70;69.66;100727.66;7368304;19;19926;-62
2023/11/28 10:35:42;;;;;;;;;;;;;;;6.72;69.69;100731.09;7362206;19;19927;-62
2023/11/28 10:38:16;;;;;;;;;;;;;;;6.75;70.17;100731.09;7363107;19;19923;-62
2023/11/28 10:40:49;;;;;;;;;;;;;;;6.78;70.22;100732.78;7363488;19;19929;-61
2023/11/28 10:43:14;;;;;;;;;;;;;;;6.81;69.97;100725.00;7364530;19;19942;-62
2023/11/28 10:45:43;;;;;;;;;;;;;;;6.83;69.80;100725.84;7361828;19;19918;-62
2023/11/28 10:48:09;;;;;;;;;;;;;;;6.86;69.68;100728.44;7363736;19;19922;-61
2023/11/28 10:50:35;;;;;;;;;;;;;;;6.90;69.93;100730.13;7364981;19;19936;-61
2023/11/28 10:53:02;;;;;;;;;;;;;;;6.92;69.99;100719.72;7363521;19;19937;-62
2023/11/28 10:55:28;;;;;;;;;;;;;;;6.96;70.03;100730.09;7363085;19;20396;-62
2023/11/28 10:58:01;;;;;;;;;;;;;;;6.98;69.76;100717.94;7365344;19;19923;-61
2023/11/28 11:00:26;;;;;;;;;;;;;;;7.02;70.19;100723.97;7360626;19;19918;-62
2023/11/28 11:02:53;;;;;;;;;;;;;;;7.06;70.26;100723.09;7361588;19;19922;-62
2023/11/28 11:05:19;;;;;;;;;;;;;;;7.11;69.87;100716.13;7357786;19;19926;-62
2023/11/28 11:07:46;;;;;;;;;;;;;;;7.15;70.10;100719.56;7362781;19;19929;-61
2023/11/28 11:10:12;;;;;;;;;;;;;;;7.13;69.83;100701.38;7366480;19;19926;-61
2023/11/28 11:12:39;;;;;;;;;;;;;;;7.23;70.26;100710.81;7371039;19;19910;-62
2023/11/28 11:15:11;;;;;;;;;;;;;;;7.28;69.75;100710.78;7355901;19;19930;-62
2023/11/28 11:17:36;;;;;;;;;;;;;;;7.32;70.13;100696.88;7357535;19;20350;-61
2023/11/28 11:20:04;;;;;;;;;;;;;;;7.38;69.99;100702.03;7361206;19;19922;-62
2023/11/28 11:22:32;;;;;;;;;;;;;;;7.42;70.08;100698.53;7363066;19;19938;-62
2023/11/28 11:24:59;;;;;;;;;;;;;;;7.47;70.29;100706.28;7364875;19;19930;-62
2023/11/28 11:27:26;;;;;;;;;;;;;;;7.52;70.23;100702.75;7363850;19;19951;-61
2023/11/28 11:29:52;;;;;;;;;;;;;;;7.57;70.12;100700.09;7363874;19;20355;-62
2023/11/28 11:32:20;;;;;;;;;;;;;;;7.61;69.89;100699.19;7353335;19;20765;-61
2023/11/28 11:34:49;;;;;;;;;;;;;;;7.64;69.91;100693.94;7361107;19;19919;-62
2023/11/28 11:37:18;;;;;;;;;;;;;;;7.69;70.16;100693.91;7362949;19;20352;-61
2023/11/28 11:39:45;;;;;;;;;;;;;;;7.73;69.94;100682.59;7360435;19;19918;-61
2023/11/28 11:42:13;;;;;;;;;;;;;;;7.77;69.96;100682.56;7361659;19;19915;-61
2023/11/28 11:44:39;;;;;;;;;;;;;;;7.82;70.30;100687.69;7366244;19;19933;-62
2023/11/28 11:47:17;;;;;;;;;;;;;;;7.87;70.23;100680.72;7365770;19;20273;-62
2023/11/28 11:49:43;;;;;;;;;;;;;;;7.92;70.03;100678.91;7362248;19;19918;-61
2023/11/28 11:52:09;;;;;;;;;;;;;;;7.98;70.40;100678.84;7361702;19;19929;-62
2023/11/28 11:54:34;;;;;;;;;;;;;;;8.05;70.33;100679.59;7363320;19;19954;-62
2023/11/28 11:56:59;;;;;;;;;;;;;;;8.07;70.03;100670.91;7359384;19;20014;-62
2023/11/28 11:59:27;;;;;;;;;;;;;;;8.18;70.48;100680.31;7371199;19;19931;-62
2023/11/28 12:01:52;;;;;;;;;;;;;;;8.25;70.30;100677.59;7365222;19;19948;-62
2023/11/28 12:04:18;;;;;;;;;;;;;;;8.33;70.35;100669.72;7364976;19;19926;-62
2023/11/28 12:06:43;;;;;;;;;;;;;;;8.40;70.15;100670.50;7360600;19;20375;-62
2023/11/28 12:09:08;;;;;;;;;;;;;;;8.47;70.17;100673.00;7359062;19;19923;-62
2023/11/28 12:11:34;;;;;;;;;;;;;;;8.53;70.51;100670.31;7358214;19;19942;-62
2023/11/28 12:14:00;;;;;;;;;;;;;;;8.61;69.98;100671.94;7363124;19;19923;-62
2023/11/28 12:16:25;;;;;;;;;;;;;;;8.66;69.96;100675.31;7355715;19;19950;-62
2023/11/28 12:18:51;;;;;;;;;;;;;;;8.72;70.38;100670.06;7363147;19;19922;-62
2023/11/28 12:21:16;;;;;;;;;;;;;;;8.77;69.92;100665.63;7357723;19;19918;-62
2023/11/28 12:23:41;;;;;;;;;;;;;;;8.83;69.96;100670.72;7355768;19;19923;-61
2023/11/28 12:26:07;;;;;;;;;;;;;;;8.89;69.96;100662.81;7357023;19;19926;-62
2023/11/28 12:28:33;;;;;;;;;;;;;;;8.94;69.83;100653.19;7356685;19;19923;-62
2023/11/28 12:30:58;;;;;;;;;;;;;;;8.97;69.89;100653.13;7361824;19;20612;-62
2023/11/28 12:33:23;;;;;;;;;;;;;;;9.01;70.14;100649.56;7366399;19;19919;-62
2023/11/28 12:35:49;;;;;;;;;;;;;;;9.04;69.76;100654.75;7353995;19;19919;-61
2023/11/28 12:38:14;;;;;;;;;;;;;;;9.08;70.13;100640.78;7360249;19;19948;-62
2023/11/28 12:40:40;;;;;;;;;;;;;;;9.14;69.87;100644.16;7355772;19;19914;-62
2023/11/28 12:43:05;;;;;;;;;;;;;;;9.21;69.98;100637.94;7365163;19;19914;-62
2023/11/28 12:45:32;;;;;;;;;;;;;;;9.29;70.01;100642.16;7361624;19;20454;-62
2023/11/28 12:47:58;;;;;;;;;;;;;;;9.35;70.32;100635.97;7362766;19;19978;-62
2023/11/28 12:50:27;;;;;;;;;;;;;;;9.42;70.05;100640.16;7354316;19;20388;-62
2023/11/28 12:52:53;;;;;;;;;;;;;;;9.49;69.85;100635.72;7359347;19;20024;-62
2023/11/28 12:55:18;;;;;;;;;;;;;;;9.56;69.99;100638.16;7354609;19;20007;-61
2023/11/28 12:57:43;;;;;;;;;;;;;;;9.60;69.98;100626.78;7355501;19;19926;-62
2023/11/28 13:00:09;;;;;;;;;;;;;;;9.69;69.96;100627.50;7357140;19;19915;-61
2023/11/28 13:02:34;;;;;;;;;;;;;;;9.74;69.69;100626.50;7359220;19;19918;-62
2023/11/28 13:04:59;;;;;;;;;;;;;;;9.80;69.86;100630.72;7358549;19;19942;-62
2023/11/28 13:07:25;;;;;;;;;;;;;;;9.85;69.97;100629.75;7359039;19;19914;-61
2023/11/28 13:09:50;;;;;;;;;;;;;;;9.90;69.55;100624.44;7363373;19;19922;-62
2023/11/28 13:12:17;;;;;;;;;;;;;;;9.94;69.69;100623.47;7354245;19;19915;-61
2023/11/28 13:14:43;;;;;;;;;;;;;;;9.98;69.83;100617.28;7361802;19;20327;-62
2023/11/28 13:17:08;;;;;;;;;;;;;;;10.01;69.60;100616.38;7358325;19;19943;-62
2023/11/28 13:19:33;;;;;;;;;;;;;;;10.04;69.40;100609.34;7360684;19;20356;-62
2023/11/28 13:21:58;;;;;;;;;;;;;;;10.09;69.35;100602.28;7354038;19;19915;-61
2023/11/28 13:24:24;;;;;;;;;;;;;;;10.17;69.74;100598.63;7360184;19;20291;-62
2023/11/28 13:26:49;;;;;;;;;;;;;;;10.24;69.32;100595.00;7357706;19;19942;-62
2023/11/28 13:29:15;;;;;;;;;;;;;;;10.33;69.46;100600.03;7359983;19;19933;-62
2023/11/28 13:31:41;;;;;;;;;;;;;;;10.42;69.63;100584.16;7353727;19;19950;-62
2023/11/28 13:34:07;;;;;;;;;;;;;;;10.50;69.32;100587.44;7358832;19;19944;-62
2023/11/28 13:36:32;;;;;;;;;;;;;;;10.58;69.60;100585.47;7360104;19;20255;-62
2023/11/28 13:38:58;;;;;;;;;;;;;;;10.65;69.78;100586.22;7356495;19;20610;-62
2023/11/28 13:41:23;;;;;;;;;;;;;;;10.72;69.20;100589.53;7360281;19;19915;-62
2023/11/28 13:43:49;;;;;;;;;;;;;;;10.75;69.08;100581.63;7352782;19;19959;-62
2023/11/28 13:46:14;;;;;;;;;;;;;;;10.80;69.09;100584.97;7360317;19;19927;-62
2023/11/28 13:48:39;;;;;;;;;;;;;;;10.83;68.84;100584.88;7359634;19;20279;-62
2023/11/28 13:51:08;;;;;;;;;;;;;;;10.85;69.02;100583.09;7358201;19;20027;-62
2023/11/28 13:53:34;;;;;;;;;;;;;;;10.87;68.65;100583.91;7350474;19;19964;-62
2023/11/28 13:55:59;;;;;;;;;;;;;;;10.87;68.70;100583.91;7358355;19;19943;-62
2023/11/28 13:58:24;;;;;;;;;;;;;;;10.88;68.92;100583.00;7352024;19;19911;-62
2023/11/28 14:00:51;;;;;;;;;;;;;;;10.89;69.06;100575.13;7359211;19;19950;-62
2023/11/28 14:03:17;;;;;;;;;;;;;;;10.90;69.15;100570.78;7349385;19;20771;-62
2023/11/28 14:05:42;;;;;;;;;;;;;;;10.93;68.76;100564.59;7357046;19;19926;-62
2023/11/28 14:08:07;;;;;;;;;;;;;;;10.94;68.70;100569.78;7350782;19;20948;-62
2023/11/28 14:10:33;;;;;;;;;;;;;;;10.97;68.54;100567.09;7356282;19;19918;-62
2023/11/28 14:12:58;;;;;;;;;;;;;;;10.95;68.47;100554.94;7356210;19;19943;-62
2023/11/28 14:15:23;;;;;;;;;;;;;;;11.02;68.60;100560.00;7353118;19;19919;-61
2023/11/28 14:17:49;;;;;;;;;;;;;;;11.05;68.58;100561.66;7357252;19;19915;-62
2023/11/28 14:20:14;;;;;;;;;;;;;;;11.07;68.55;100563.34;7355019;19;19939;-62
2023/11/28 14:22:42;;;;;;;;;;;;;;;11.08;68.52;100564.19;7358023;19;20258;-62
2023/11/28 14:25:12;;;;;;;;;;;;;;;11.08;68.61;100567.66;7361475;19;20671;-62
2023/11/28 14:27:37;;;;;;;;;;;;;;;11.07;68.51;100554.66;7358144;19;19926;-61
2023/11/28 14:30:05;;;;;;;;;;;;;;;11.06;68.01;100555.53;7355314;19;20627;-61
2023/11/28 14:32:30;;;;;;;;;;;;;;;11.04;68.30;100547.72;7356445;19;19965;-62
2023/11/28 14:34:57;;;;;;;;;;;;;;;11.02;68.31;100549.53;7365067;19;20293;-62
2023/11/28 14:37:22;;;;;;;;;;;;;;;10.99;67.86;100554.84;7365955;19;19936;-61
2023/11/28 14:39:47;;;;;;;;;;;;;;;10.98;68.23;100553.13;7370368;19;20649;-62
2023/11/28 14:42:13;;;;;;;;;;;;;;;10.95;68.12;100557.56;7362214;19;19911;-62
2023/11/28 14:44:38;;;;;;;;;;;;;;;10.93;67.98;100560.22;7359368;19;19939;-62
2023/11/28 14:47:03;;;;;;;;;;;;;;;10.90;67.82;100555.09;7360866;19;19919;-62
2023/11/28 14:49:28;;;;;;;;;;;;;;;10.87;67.73;100550.78;7359373;19;19923;-62
2023/11/28 14:51:54;;;;;;;;;;;;;;;10.85;67.72;100555.22;7365817;19;19938;-62
2023/11/28 14:54:19;;;;;;;;;;;;;;;10.83;67.66;100553.53;7368322;19;20367;-62
2023/11/28 14:56:44;;;;;;;;;;;;;;;10.80;67.88;100558.84;7356491;19;20523;-62
2023/11/28 14:59:10;;;;;;;;;;;;;;;10.78;67.63;100560.63;7365544;19;19931;-61
2023/11/28 15:01:35;;;;;;;;;;;;;;;10.75;67.92;100558.13;7360457;19;19918;-61
2023/11/28 15:04:01;;;;;;;;;;;;;;;10.74;67.66;100564.22;7366082;19;19923;-61
2023/11/28 15:06:27;;;;;;;;;;;;;;;10.72;67.77;100560.78;7366365;19;20878;-61
2023/11/28 15:08:53;;;;;;;;;;;;;;;10.69;67.82;100556.47;7361248;19;19922;-61
2023/11/28 15:11:18;;;;;;;;;;;;;;;10.66;67.74;100556.59;7364488;19;19926;-62
2023/11/28 15:13:44;;;;;;;;;;;;;;;10.63;68.05;100552.28;7366668;19;19926;-62
2023/11/28 15:16:10;;;;;;;;;;;;;;;10.59;67.83;100558.50;7369911;19;19919;-61
2023/11/28 15:18:35;;;;;;;;;;;;;;;10.55;67.49;100554.25;7364147;19;19943;-62
2023/11/28 15:21:00;;;;;;;;;;;;;;;10.51;67.46;100552.59;7364949;19;20656;-62
2023/11/28 15:23:26;;;;;;;;;;;;;;;10.44;67.92;100540.59;7365746;19;19930;-62
2023/11/28 15:25:51;;;;;;;;;;;;;;;10.43;67.94;100549.31;7359356;19;19910;-62
2023/11/28 15:28:17;;;;;;;;;;;;;;;10.41;67.55;100545.88;7360950;19;19935;-62